createdAt,value
2022-11-15T00:13:13.550Z,9.30
2022-11-15T00:16:00.998Z,9.50
2022-11-15T00:21:36.806Z,9.50
2022-11-15T00:27:08.390Z,10.00
2022-11-15T00:29:54.221Z,9.80
2022-11-15T00:32:39.738Z,9.80
2022-11-15T00:46:30.747Z,10.10
2022-11-15T00:52:01.927Z,10.20
2022-11-15T01:03:04.798Z,10.40
2022-11-15T01:05:50.278Z,10.40
2022-11-15T01:08:36.458Z,10.70
2022-11-15T01:19:39.619Z,10.70
2022-11-15T01:22:25.171Z,10.80
2022-11-15T01:33:30.101Z,10.30
2022-11-15T01:36:19.578Z,10.80
2022-11-15T01:39:05.234Z,11.00
2022-11-15T01:47:26.235Z,11.00
2022-11-15T01:50:16.681Z,11.00
2022-11-15T01:58:36.426Z,11.30
2022-11-15T02:01:25.297Z,11.20
2022-11-15T02:04:18.045Z,11.10
2022-11-15T02:07:06.151Z,11.20
2022-11-15T02:12:38.639Z,11.10
2022-11-15T02:15:31.651Z,10.90
2022-11-15T02:18:28.280Z,11.20
2022-11-15T02:21:29.687Z,11.00
2022-11-15T02:24:35.852Z,10.80
2022-11-15T02:27:33.005Z,10.80
2022-11-15T02:30:43.305Z,10.80
2022-11-15T02:33:58.455Z,10.70
2022-11-15T02:36:59.077Z,10.70
2022-11-15T02:40:10.825Z,10.90
2022-11-15T02:43:22.269Z,11.00
2022-11-15T02:46:50.489Z,11.40
2022-11-15T02:49:37.752Z,10.60
2022-11-15T02:52:27.045Z,11.20
2022-11-15T02:55:32.447Z,10.60
2022-11-15T02:58:42.041Z,11.10
2022-11-15T03:02:02.037Z,11.20
2022-11-15T03:08:15.287Z,11.20
2022-11-15T03:11:14.537Z,11.20
2022-11-15T03:14:01.770Z,11.10
2022-11-15T03:19:47.960Z,11.30
2022-11-15T03:22:43.628Z,11.20
2022-11-15T03:25:31.802Z,11.30
2022-11-15T03:28:29.011Z,11.30
2022-11-15T03:31:34.807Z,11.20
2022-11-15T03:34:32.821Z,11.30
2022-11-15T03:37:22.328Z,11.30
2022-11-15T03:43:21.158Z,11.40
2022-11-15T03:46:16.674Z,11.40
2022-11-15T03:49:10.289Z,11.40
2022-11-15T03:51:58.756Z,11.40
2022-11-15T03:54:58.042Z,11.30
2022-11-15T03:57:44.278Z,11.40
2022-11-15T04:00:29.890Z,11.60
2022-11-15T04:11:33.516Z,11.50
2022-11-15T04:14:18.765Z,11.40
2022-11-15T04:23:17.383Z,11.50
2022-11-15T04:26:05.830Z,11.50
2022-11-15T04:29:09.906Z,11.40
2022-11-15T04:34:41.508Z,11.20
2022-11-15T04:43:03.669Z,11.50
2022-11-15T04:45:49.509Z,11.20
2022-11-15T05:16:35.960Z,11.20
2022-11-15T05:19:21.863Z,11.00
2022-11-15T05:24:53.057Z,11.40
2022-11-15T05:33:10.505Z,11.40
2022-11-15T05:36:01.267Z,11.40
2022-11-15T05:38:51.228Z,11.40
2022-11-15T05:41:47.578Z,11.30
2022-11-15T05:44:34.647Z,11.10
2022-11-15T05:47:26.884Z,11.30
2022-11-15T05:50:19.052Z,11.30
2022-11-15T05:53:05.549Z,11.40
2022-11-15T05:58:38.315Z,11.50
2022-11-15T06:15:13.238Z,11.20
2022-11-15T06:17:59.396Z,11.50
2022-11-15T06:23:34.207Z,11.40
2022-11-15T06:29:06.129Z,11.40
2022-11-15T06:31:52.152Z,11.50
2022-11-15T06:40:10.859Z,11.50
2022-11-15T06:43:00.329Z,11.40
2022-11-15T06:48:33.995Z,11.60
2022-11-15T06:51:19.276Z,11.60
2022-11-15T06:54:04.789Z,11.30
2022-11-15T06:56:50.270Z,11.60
2022-11-15T07:05:13.193Z,11.60
2022-11-15T07:07:59.502Z,11.90
2022-11-15T07:13:35.869Z,11.90
2022-11-15T07:19:07.435Z,11.80
2022-11-15T07:21:52.813Z,11.70
2022-11-15T07:27:24.165Z,11.20
2022-11-15T07:30:10.389Z,11.50
2022-11-15T07:38:30.043Z,11.90
2022-11-15T07:44:01.417Z,12.20
2022-11-15T07:55:04.677Z,13.30
2022-11-15T08:03:23.062Z,13.80
2022-11-15T08:08:54.153Z,13.80
2022-11-15T08:19:56.938Z,13.60
2022-11-15T08:22:42.489Z,13.60
2022-11-15T08:25:29.581Z,13.60
2022-11-15T08:28:17.680Z,13.50
2022-11-15T08:31:04.471Z,13.30
2022-11-15T08:36:44.550Z,13.60
2022-11-15T08:42:20.077Z,13.70
2022-11-15T08:45:06.707Z,13.70
2022-11-15T08:47:54.479Z,13.50
2022-11-15T08:53:26.633Z,13.70
2022-11-15T08:56:13.853Z,14.00
2022-11-15T09:01:45.089Z,13.80
2022-11-15T09:04:30.476Z,13.70
2022-11-15T09:07:16.191Z,13.70
2022-11-15T09:10:01.845Z,14.00
2022-11-15T09:18:23.270Z,13.90
2022-11-15T09:21:09.253Z,13.90
2022-11-15T09:23:54.767Z,14.00
2022-11-15T09:26:40.716Z,14.00
2022-11-15T09:40:32.126Z,14.40
2022-11-15T09:43:32.958Z,14.50
2022-11-15T09:46:47.800Z,14.60
2022-11-15T09:49:43.833Z,14.40
2022-11-15T09:52:24.371Z,14.20
2022-11-15T09:54:55.215Z,15.10
2022-11-15T09:57:39.604Z,14.50
2022-11-15T10:00:44.036Z,14.50
2022-11-15T10:03:16.124Z,13.90
2022-11-15T10:05:56.435Z,14.50
2022-11-15T10:08:51.586Z,14.50
2022-11-15T10:11:37.920Z,14.20
2022-11-15T10:14:17.200Z,14.60
2022-11-15T10:17:18.308Z,14.60
2022-11-15T10:19:51.431Z,14.70
2022-11-15T10:22:30.447Z,14.60
2022-11-15T10:25:02.086Z,14.70
2022-11-15T10:27:30.793Z,14.60
2022-11-15T10:29:57.731Z,14.70
2022-11-15T10:32:25.035Z,14.60
2022-11-15T10:37:30.770Z,14.70
2022-11-15T10:40:15.351Z,14.60
2022-11-15T10:45:30.097Z,14.60
2022-11-15T10:48:24.217Z,14.70
2022-11-15T10:50:53.012Z,15.30
2022-11-15T10:53:31.592Z,14.80
2022-11-15T10:56:03.027Z,14.80
2022-11-15T10:58:40.930Z,14.80
2022-11-15T11:01:20.933Z,14.90
2022-11-15T11:04:01.356Z,15.10
2022-11-15T11:06:28.865Z,15.10
2022-11-15T11:09:02.220Z,15.20
2022-11-15T11:11:50.800Z,15.10
2022-11-15T11:14:32.006Z,15.60
2022-11-15T11:17:34.152Z,15.60
2022-11-15T11:20:30.361Z,15.70
2022-11-15T11:25:35.931Z,15.90
2022-11-15T11:28:05.598Z,15.80
2022-11-15T11:30:43.550Z,15.80
2022-11-15T11:33:34.527Z,15.80
2022-11-15T11:36:34.473Z,15.90
2022-11-15T11:39:46.085Z,16.00
2022-11-15T11:42:49.878Z,15.90
2022-11-15T11:45:33.832Z,15.70
2022-11-15T11:48:25.233Z,15.60
2022-11-15T11:50:54.632Z,15.60
2022-11-15T11:53:40.050Z,15.50
2022-11-15T11:56:36.060Z,18.10
2022-11-15T11:59:26.607Z,15.70
2022-11-15T12:01:54.002Z,15.90
2022-11-15T12:04:36.138Z,15.80
2022-11-15T12:09:36.675Z,15.80
2022-11-15T12:12:26.198Z,15.70
2022-11-15T12:15:00.569Z,15.70
2022-11-15T12:17:33.255Z,15.70
2022-11-15T12:20:16.376Z,15.80
2022-11-15T12:22:56.050Z,15.70
2022-11-15T12:25:32.047Z,16.00
2022-11-15T12:28:16.053Z,15.80
2022-11-15T12:30:56.639Z,15.80
2022-11-15T12:33:47.863Z,15.60
2022-11-15T12:36:23.607Z,15.60
2022-11-15T12:39:01.881Z,15.60
2022-11-15T12:41:31.466Z,15.70
2022-11-15T12:44:02.295Z,15.60
2022-11-15T12:46:32.003Z,15.70
2022-11-15T12:49:23.836Z,15.70
2022-11-15T12:51:52.065Z,15.50
2022-11-15T12:54:24.955Z,15.70
2022-11-15T12:57:04.168Z,15.80
2022-11-15T12:59:56.365Z,15.60
2022-11-15T13:02:46.436Z,15.30
2022-11-15T13:05:23.486Z,16.00
2022-11-15T13:07:50.688Z,15.20
2022-11-15T13:12:47.716Z,14.80
2022-11-15T13:15:53.837Z,14.80
2022-11-15T13:18:30.146Z,14.60
2022-11-15T13:26:11.472Z,14.90
2022-11-15T13:28:50.514Z,15.00
2022-11-15T13:31:38.732Z,14.60
2022-11-15T13:34:50.133Z,14.80
2022-11-15T13:37:35.387Z,14.70
2022-11-15T13:40:37.959Z,14.60
2022-11-15T13:43:37.344Z,14.40
2022-11-15T13:46:13.204Z,15.10
2022-11-15T13:48:42.093Z,14.80
2022-11-15T13:51:23.710Z,15.60
2022-11-15T13:53:57.857Z,15.10
2022-11-15T13:56:27.010Z,15.20
2022-11-15T13:58:55.802Z,15.20
2022-11-15T14:01:23.868Z,15.40
2022-11-15T14:03:55.468Z,15.50
2022-11-15T14:06:25.560Z,15.40
2022-11-15T14:09:11.009Z,15.50
2022-11-15T14:11:38.904Z,15.60
2022-11-15T14:16:57.759Z,15.40
2022-11-15T14:19:24.680Z,15.70
2022-11-15T14:22:10.646Z,15.60
2022-11-15T14:27:27.932Z,15.50
2022-11-15T14:29:55.787Z,15.50
2022-11-15T14:32:25.272Z,15.50
2022-11-15T14:35:01.528Z,15.30
2022-11-15T14:37:36.779Z,15.20
2022-11-15T14:40:06.319Z,15.10
2022-11-15T14:52:34.416Z,14.50
2022-11-15T14:55:03.424Z,14.50
2022-11-15T14:57:31.738Z,14.30
2022-11-15T15:05:18.183Z,14.00
2022-11-15T15:15:37.673Z,13.60
2022-11-15T15:18:05.878Z,13.60
2022-11-15T15:20:33.597Z,13.50
2022-11-15T15:25:37.012Z,13.50
2022-11-15T15:30:32.196Z,13.50
2022-11-15T15:35:31.877Z,13.50
2022-11-15T15:38:00.137Z,13.40
2022-11-15T15:40:29.893Z,13.30
2022-11-15T15:42:56.913Z,13.30
2022-11-15T15:47:52.976Z,13.30
2022-11-15T15:50:32.899Z,13.20
2022-11-15T15:53:01.974Z,12.80
2022-11-15T16:00:26.283Z,13.10
2022-11-15T16:02:54.523Z,13.20
2022-11-15T16:05:22.414Z,13.20
2022-11-15T16:12:45.140Z,13.20
2022-11-15T16:17:44.805Z,13.10
2022-11-15T16:20:43.536Z,13.20
2022-11-15T16:23:13.339Z,12.90
2022-11-15T16:25:56.419Z,13.20
2022-11-15T16:28:23.505Z,13.20
2022-11-15T16:31:00.551Z,13.30
2022-11-15T16:43:30.021Z,13.30
2022-11-15T16:48:26.744Z,13.20
2022-11-15T16:50:58.275Z,13.20
2022-11-15T16:53:26.419Z,13.30
2022-11-15T16:55:55.093Z,13.10
2022-11-15T16:58:22.445Z,13.10
2022-11-15T17:00:53.844Z,13.10
2022-11-15T17:03:22.339Z,13.10
2022-11-15T17:05:50.314Z,13.20
2022-11-15T17:10:44.770Z,13.10
2022-11-15T17:13:14.958Z,13.10
2022-11-15T17:15:42.630Z,13.20
2022-11-15T17:18:16.693Z,13.10
2022-11-15T17:23:15.171Z,13.00
2022-11-15T17:28:10.715Z,13.00
2022-11-15T17:33:05.294Z,13.00
2022-11-15T18:27:11.705Z,12.40
2022-11-15T18:34:39.638Z,12.40
2022-11-15T18:42:01.953Z,12.50
2022-11-15T18:44:30.268Z,12.40
2022-11-15T18:46:57.813Z,12.50
2022-11-15T18:59:16.232Z,12.80
2022-11-15T19:01:48.165Z,12.60
2022-11-15T19:04:18.505Z,12.70
2022-11-15T19:06:47.907Z,12.80
2022-11-15T19:09:17.705Z,12.80
2022-11-15T19:11:46.397Z,13.00
2022-11-15T19:14:15.902Z,13.00
2022-11-15T19:16:52.114Z,13.00
2022-11-15T19:19:22.537Z,12.90
2022-11-15T19:24:17.246Z,12.60
2022-11-15T19:34:13.784Z,13.00
2022-11-15T19:36:42.956Z,13.00
2022-11-15T19:39:13.397Z,13.10
2022-11-15T19:41:42.546Z,13.00
2022-11-15T19:44:11.693Z,13.00
2022-11-15T19:46:40.951Z,13.00
2022-11-15T19:49:11.474Z,13.00
2022-11-15T19:51:42.668Z,13.00
2022-11-15T19:56:39.983Z,13.10
2022-11-15T19:59:07.518Z,12.90
2022-11-15T20:01:37.884Z,13.00
2022-11-15T20:04:06.150Z,13.00
2022-11-15T20:06:40.096Z,13.00
2022-11-15T20:11:37.918Z,13.10
2022-11-15T20:14:07.874Z,13.10
2022-11-15T20:36:16.917Z,13.30
2022-11-15T20:38:49.516Z,13.40
2022-11-15T20:43:44.141Z,13.30
2022-11-15T20:46:12.666Z,13.40
2022-11-15T20:48:40.714Z,13.40
2022-11-15T20:51:12.779Z,13.50
2022-11-15T20:53:44.496Z,13.40
2022-11-15T20:56:15.720Z,13.30
2022-11-15T21:01:13.798Z,13.30
2022-11-15T21:08:58.069Z,13.30
2022-11-15T21:11:44.758Z,13.30
2022-11-15T21:19:07.348Z,13.30
2022-11-15T21:21:36.311Z,13.20
2022-11-15T21:24:05.222Z,13.20
2022-11-15T21:26:33.812Z,13.20
2022-11-15T21:31:29.842Z,13.00
2022-11-15T21:33:57.106Z,13.10
2022-11-15T21:41:21.312Z,13.00
2022-11-15T21:48:44.115Z,13.30
2022-11-15T21:51:12.360Z,13.20
2022-11-15T21:53:39.505Z,13.40
2022-11-15T22:06:18.168Z,13.30
2022-11-15T22:08:46.610Z,13.20
2022-11-15T22:11:14.601Z,13.30
2022-11-15T22:13:41.991Z,13.20
2022-11-15T22:16:10.029Z,13.30
2022-11-15T22:18:37.825Z,13.40
2022-11-15T22:21:09.157Z,13.30
2022-11-15T22:23:37.255Z,13.40
2022-11-15T22:26:05.560Z,13.30
2022-11-15T22:31:00.664Z,13.30
2022-11-15T22:33:30.702Z,13.30
2022-11-15T22:35:58.741Z,13.30
2022-11-15T22:38:26.766Z,13.00
2022-11-15T22:41:23.358Z,13.30
2022-11-15T22:48:49.823Z,13.20
2022-11-15T22:56:14.114Z,13.30
2022-11-15T22:58:44.671Z,13.60
2022-11-15T23:01:20.377Z,13.30
2022-11-15T23:03:47.562Z,13.40
2022-11-15T23:06:14.630Z,13.40
2022-11-15T23:08:42.264Z,13.40
2022-11-15T23:11:29.881Z,13.40
2022-11-15T23:16:34.519Z,13.20
2022-11-15T23:19:05.135Z,13.30
2022-11-15T23:21:58.077Z,13.20
2022-11-15T23:24:25.715Z,13.20
2022-11-15T23:26:56.662Z,13.20
2022-11-15T23:29:32.392Z,13.20
2022-11-15T23:32:19.148Z,13.20
2022-11-15T23:34:46.707Z,13.30
2022-11-15T23:37:15.405Z,13.30
2022-11-15T23:44:49.958Z,13.30
2022-11-15T23:47:18.618Z,13.30
2022-11-15T23:52:15.394Z,13.30
2022-11-15T23:54:43.279Z,13.30
2022-11-15T23:57:12.390Z,13.20
2022-11-15T23:59:43.785Z,13.30
